sensor_id;sensor_type;location;lat;lon;timestamp;pressure;altitude;pressure_sealevel;temperature;humidity
10261;BME280;5175;42.606;23.388;2024-01-07T00:01:08;92283.41;;;7.70;100.00
10261;BME280;5175;42.606;23.388;2024-01-07T00:03:36;92293.66;;;7.63;100.00
10261;BME280;5175;42.606;23.388;2024-01-07T00:06:04;92294.94;;;7.51;100.00
10261;BME280;5175;42.606;23.388;2024-01-07T00:08:30;92276.09;;;7.39;100.00
10261;BME280;5175;42.606;23.388;2024-01-07T00:10:57;92229.69;;;7.10;100.00
10261;BME280;5175;42.606;23.388;2024-01-07T00:13:24;92258.50;;;7.16;100.00
10261;BME280;5175;42.606;23.388;2024-01-07T00:15:50;92268.16;;;6.93;100.00
10261;BME280;5175;42.606;23.388;2024-01-07T00:18:19;92259.44;;;6.79;100.00
10261;BME280;5175;42.606;23.388;2024-01-07T00:20:47;92248.91;;;6.74;100.00
10261;BME280;5175;42.606;23.388;2024-01-07T00:23:14;92246.72;;;6.63;100.00
10261;BME280;5175;42.606;23.388;2024-01-07T00:25:40;92244.59;;;6.65;100.00
10261;BME280;5175;42.606;23.388;2024-01-07T00:28:07;92234.66;;;6.70;100.00
10261;BME280;5175;42.606;23.388;2024-01-07T00:30:34;92227.22;;;6.26;100.00
10261;BME280;5175;42.606;23.388;2024-01-07T00:33:01;92222.88;;;6.49;100.00
10261;BME280;5175;42.606;23.388;2024-01-07T00:35:28;92224.56;;;6.26;100.00
10261;BME280;5175;42.606;23.388;2024-01-07T00:37:56;92216.78;;;6.49;100.00
10261;BME280;5175;42.606;23.388;2024-01-07T00:40:23;92223.34;;;6.19;100.00
10261;BME280;5175;42.606;23.388;2024-01-07T00:42:49;92215.66;;;6.36;100.00
10261;BME280;5175;42.606;23.388;2024-01-07T00:45:17;92209.09;;;6.34;100.00
10261;BME280;5175;42.606;23.388;2024-01-07T00:47:44;92199.47;;;6.38;100.00
10261;BME280;5175;42.606;23.388;2024-01-07T00:50:10;92186.28;;;6.51;100.00
10261;BME280;5175;42.606;23.388;2024-01-07T00:52:37;92182.28;;;6.67;100.00
10261;BME280;5175;42.606;23.388;2024-01-07T00:55:06;92177.75;;;6.54;100.00
10261;BME280;5175;42.606;23.388;2024-01-07T00:57:33;92169.03;;;6.67;100.00
10261;BME280;5175;42.606;23.388;2024-01-07T01:00:00;92170.00;;;6.85;100.00
10261;BME280;5175;42.606;23.388;2024-01-07T01:02:27;92172.75;;;6.80;100.00
10261;BME280;5175;42.606;23.388;2024-01-07T01:04:53;92173.63;;;6.89;100.00
10261;BME280;5175;42.606;23.388;2024-01-07T01:07:20;92168.91;;;7.00;100.00
10261;BME280;5175;42.606;23.388;2024-01-07T01:09:47;92159.00;;;7.05;100.00
10261;BME280;5175;42.606;23.388;2024-01-07T01:12:15;92153.75;;;7.27;100.00
10261;BME280;5175;42.606;23.388;2024-01-07T01:14:41;92146.47;;;7.33;100.00
10261;BME280;5175;42.606;23.388;2024-01-07T01:17:08;92141.50;;;7.31;100.00
10261;BME280;5175;42.606;23.388;2024-01-07T01:19:35;92138.53;;;7.33;100.00
10261;BME280;5175;42.606;23.388;2024-01-07T01:22:02;92131.34;;;7.47;100.00
10261;BME280;5175;42.606;23.388;2024-01-07T01:24:28;92125.28;;;7.55;100.00
10261;BME280;5175;42.606;23.388;2024-01-07T01:26:55;92100.56;;;7.46;100.00
10261;BME280;5175;42.606;23.388;2024-01-07T01:29:23;92098.94;;;7.58;100.00
10261;BME280;5175;42.606;23.388;2024-01-07T01:31:50;92114.31;;;7.48;100.00
10261;BME280;5175;42.606;23.388;2024-01-07T01:34:17;92081.44;;;7.35;100.00
10261;BME280;5175;42.606;23.388;2024-01-07T01:36:43;92089.53;;;7.52;100.00
10261;BME280;5175;42.606;23.388;2024-01-07T01:39:10;92086.03;;;7.66;100.00
10261;BME280;5175;42.606;23.388;2024-01-07T01:41:37;92086.22;;;7.69;100.00
10261;BME280;5175;42.606;23.388;2024-01-07T01:44:04;92084.41;;;7.78;100.00
10261;BME280;5175;42.606;23.388;2024-01-07T01:46:32;92068.75;;;7.99;100.00
10261;BME280;5175;42.606;23.388;2024-01-07T01:48:59;92056.59;;;7.98;100.00
10261;BME280;5175;42.606;23.388;2024-01-07T01:51:26;92053.19;;;8.06;100.00
10261;BME280;5175;42.606;23.388;2024-01-07T01:53:54;92046.50;;;8.08;100.00
10261;BME280;5175;42.606;23.388;2024-01-07T01:56:24;92052.09;;;8.07;100.00
10261;BME280;5175;42.606;23.388;2024-01-07T01:58:51;92042.25;;;8.07;100.00
10261;BME280;5175;42.606;23.388;2024-01-07T02:01:18;92041.34;;;8.12;100.00
10261;BME280;5175;42.606;23.388;2024-01-07T02:03:47;92048.28;;;7.69;100.00
10261;BME280;5175;42.606;23.388;2024-01-07T02:06:14;92052.31;;;7.66;100.00
10261;BME280;5175;42.606;23.388;2024-01-07T02:08:41;92060.41;;;7.39;100.00
10261;BME280;5175;42.606;23.388;2024-01-07T02:11:15;92045.41;;;7.34;100.00
10261;BME280;5175;42.606;23.388;2024-01-07T02:13:42;92054.94;;;7.22;100.00
10261;BME280;5175;42.606;23.388;2024-01-07T02:16:09;92041.53;;;7.40;100.00
10261;BME280;5175;42.606;23.388;2024-01-07T02:18:36;92035.25;;;7.58;100.00
10261;BME280;5175;42.606;23.388;2024-01-07T02:21:06;92007.66;;;7.60;100.00
10261;BME280;5175;42.606;23.388;2024-01-07T02:23:33;92007.88;;;7.72;100.00
10261;BME280;5175;42.606;23.388;2024-01-07T02:26:01;91991.16;;;7.71;100.00
10261;BME280;5175;42.606;23.388;2024-01-07T02:28:29;91967.72;;;7.65;100.00
10261;BME280;5175;42.606;23.388;2024-01-07T02:30:56;91955.00;;;7.84;100.00
10261;BME280;5175;42.606;23.388;2024-01-07T02:33:23;91960.31;;;7.84;100.00
10261;BME280;5175;42.606;23.388;2024-01-07T02:35:50;91975.03;;;7.90;100.00
10261;BME280;5175;42.606;23.388;2024-01-07T02:38:16;91962.41;;;7.95;100.00
10261;BME280;5175;42.606;23.388;2024-01-07T02:40:43;91970.41;;;8.12;100.00
10261;BME280;5175;42.606;23.388;2024-01-07T02:43:11;91964.09;;;8.31;100.00
10261;BME280;5175;42.606;23.388;2024-01-07T02:45:38;91975.22;;;8.41;100.00
10261;BME280;5175;42.606;23.388;2024-01-07T02:48:05;91978.81;;;8.45;100.00
10261;BME280;5175;42.606;23.388;2024-01-07T02:50:32;91972.59;;;8.50;100.00
10261;BME280;5175;42.606;23.388;2024-01-07T02:52:59;91970.72;;;8.42;100.00
10261;BME280;5175;42.606;23.388;2024-01-07T02:55:25;91976.16;;;8.37;100.00
10261;BME280;5175;42.606;23.388;2024-01-07T02:57:52;91985.84;;;8.33;100.00
10261;BME280;5175;42.606;23.388;2024-01-07T03:00:21;91980.69;;;8.36;100.00
10261;BME280;5175;42.606;23.388;2024-01-07T03:02:48;91982.75;;;8.39;100.00
10261;BME280;5175;42.606;23.388;2024-01-07T03:05:15;91970.22;;;8.40;100.00
10261;BME280;5175;42.606;23.388;2024-01-07T03:07:41;91973.03;;;8.43;100.00
10261;BME280;5175;42.606;23.388;2024-01-07T03:10:08;91974.94;;;8.51;100.00
10261;BME280;5175;42.606;23.388;2024-01-07T03:12:35;91971.22;;;8.61;100.00
10261;BME280;5175;42.606;23.388;2024-01-07T03:15:03;91978.25;;;8.74;100.00
10261;BME280;5175;42.606;23.388;2024-01-07T03:17:32;91985.16;;;8.83;100.00
10261;BME280;5175;42.606;23.388;2024-01-07T03:19:59;91987.19;;;8.87;100.00
10261;BME280;5175;42.606;23.388;2024-01-07T03:22:26;91991.13;;;8.98;100.00
10261;BME280;5175;42.606;23.388;2024-01-07T03:24:53;91997.88;;;9.04;100.00
10261;BME280;5175;42.606;23.388;2024-01-07T03:27:19;91990.16;;;8.94;100.00
10261;BME280;5175;42.606;23.388;2024-01-07T03:29:46;91988.47;;;8.98;100.00
10261;BME280;5175;42.606;23.388;2024-01-07T03:32:13;91980.94;;;8.91;100.00
10261;BME280;5175;42.606;23.388;2024-01-07T03:34:41;91973.75;;;8.92;100.00
10261;BME280;5175;42.606;23.388;2024-01-07T03:37:07;91979.69;;;8.97;100.00
10261;BME280;5175;42.606;23.388;2024-01-07T03:39:34;91970.03;;;9.01;100.00
10261;BME280;5175;42.606;23.388;2024-01-07T03:42:01;91964.06;;;8.87;100.00
10261;BME280;5175;42.606;23.388;2024-01-07T03:44:28;91972.66;;;8.93;100.00
10261;BME280;5175;42.606;23.388;2024-01-07T03:46:55;91965.63;;;8.88;100.00
10261;BME280;5175;42.606;23.388;2024-01-07T03:49:21;91963.28;;;8.78;100.00
10261;BME280;5175;42.606;23.388;2024-01-07T03:51:49;91952.47;;;8.74;100.00
10261;BME280;5175;42.606;23.388;2024-01-07T03:54:16;91949.00;;;8.57;100.00
10261;BME280;5175;42.606;23.388;2024-01-07T03:56:43;91946.81;;;8.59;100.00
10261;BME280;5175;42.606;23.388;2024-01-07T03:59:09;91943.53;;;8.62;100.00
10261;BME280;5175;42.606;23.388;2024-01-07T04:01:36;91942.28;;;8.68;100.00
10261;BME280;5175;42.606;23.388;2024-01-07T04:04:03;91930.75;;;8.72;100.00
10261;BME280;5175;42.606;23.388;2024-01-07T04:06:30;91936.34;;;8.71;100.00
10261;BME280;5175;42.606;23.388;2024-01-07T04:08:58;91937.00;;;8.85;100.00
10261;BME280;5175;42.606;23.388;2024-01-07T04:11:24;91941.34;;;8.55;100.00
10261;BME280;5175;42.606;23.388;2024-01-07T04:13:51;91937.88;;;8.46;100.00
10261;BME280;5175;42.606;23.388;2024-01-07T04:16:19;91935.69;;;8.31;100.00
10261;BME280;5175;42.606;23.388;2024-01-07T04:18:46;91944.28;;;8.37;100.00
10261;BME280;5175;42.606;23.388;2024-01-07T04:21:13;91950.63;;;8.18;100.00
10261;BME280;5175;42.606;23.388;2024-01-07T04:23:40;91936.50;;;8.01;100.00
10261;BME280;5175;42.606;23.388;2024-01-07T04:26:08;91944.09;;;7.94;100.00
10261;BME280;5175;42.606;23.388;2024-01-07T04:28:35;91936.06;;;7.77;100.00
10261;BME280;5175;42.606;23.388;2024-01-07T04:31:01;91925.41;;;7.68;100.00
10261;BME280;5175;42.606;23.388;2024-01-07T04:33:28;91919.34;;;7.68;100.00
10261;BME280;5175;42.606;23.388;2024-01-07T04:35:55;91921.22;;;7.67;100.00
10261;BME280;5175;42.606;23.388;2024-01-07T04:38:23;91917.56;;;7.54;100.00
10261;BME280;5175;42.606;23.388;2024-01-07T04:40:50;91910.03;;;7.48;100.00
10261;BME280;5175;42.606;23.388;2024-01-07T04:43:18;91910.34;;;7.46;100.00
10261;BME280;5175;42.606;23.388;2024-01-07T04:45:45;91914.53;;;7.47;100.00
10261;BME280;5175;42.606;23.388;2024-01-07T04:48:12;91911.41;;;7.37;100.00
10261;BME280;5175;42.606;23.388;2024-01-07T04:50:39;91915.66;;;7.46;100.00
10261;BME280;5175;42.606;23.388;2024-01-07T04:53:07;91934.94;;;7.38;100.00
10261;BME280;5175;42.606;23.388;2024-01-07T04:55:33;91932.16;;;7.43;100.00
10261;BME280;5175;42.606;23.388;2024-01-07T04:58:00;91932.78;;;7.40;100.00
10261;BME280;5175;42.606;23.388;2024-01-07T05:00:30;91927.69;;;7.52;100.00
10261;BME280;5175;42.606;23.388;2024-01-07T05:02:57;91923.75;;;7.50;100.00
10261;BME280;5175;42.606;23.388;2024-01-07T05:05:24;91923.34;;;7.56;100.00
10261;BME280;5175;42.606;23.388;2024-01-07T05:07:50;91924.81;;;7.71;100.00
10261;BME280;5175;42.606;23.388;2024-01-07T05:10:17;91914.19;;;7.71;100.00
10261;BME280;5175;42.606;23.388;2024-01-07T05:12:44;91920.59;;;7.70;100.00
10261;BME280;5175;42.606;23.388;2024-01-07T05:15:11;91915.63;;;7.77;100.00
10261;BME280;5175;42.606;23.388;2024-01-07T05:17:39;91903.47;;;7.85;100.00
10261;BME280;5175;42.606;23.388;2024-01-07T05:20:07;91909.25;;;7.87;100.00
10261;BME280;5175;42.606;23.388;2024-01-07T05:22:34;91923.78;;;7.89;100.00
10261;BME280;5175;42.606;23.388;2024-01-07T05:25:00;91929.25;;;7.84;100.00
10261;BME280;5175;42.606;23.388;2024-01-07T05:27:27;91924.41;;;7.86;100.00
10261;BME280;5175;42.606;23.388;2024-01-07T05:29:54;91916.56;;;7.81;100.00
10261;BME280;5175;42.606;23.388;2024-01-07T05:32:21;91922.66;;;7.82;100.00
10261;BME280;5175;42.606;23.388;2024-01-07T05:34:51;91889.72;;;7.43;100.00
10261;BME280;5175;42.606;23.388;2024-01-07T05:37:17;91918.94;;;7.83;100.00
10261;BME280;5175;42.606;23.388;2024-01-07T05:39:44;91916.00;;;7.93;100.00
10261;BME280;5175;42.606;23.388;2024-01-07T05:42:12;91915.63;;;7.77;100.00
10261;BME280;5175;42.606;23.388;2024-01-07T05:44:39;91915.78;;;7.72;100.00
10261;BME280;5175;42.606;23.388;2024-01-07T05:47:06;91937.66;;;7.78;100.00
10261;BME280;5175;42.606;23.388;2024-01-07T05:49:32;91945.63;;;7.78;100.00
10261;BME280;5175;42.606;23.388;2024-01-07T05:52:00;91939.78;;;7.67;100.00
10261;BME280;5175;42.606;23.388;2024-01-07T05:54:27;91927.66;;;7.75;100.00
10261;BME280;5175;42.606;23.388;2024-01-07T05:56:54;91940.31;;;7.78;100.00
10261;BME280;5175;42.606;23.388;2024-01-07T05:59:21;91944.84;;;7.55;100.00
10261;BME280;5175;42.606;23.388;2024-01-07T06:01:48;91930.38;;;7.61;100.00
10261;BME280;5175;42.606;23.388;2024-01-07T06:04:15;91928.53;;;7.62;100.00
10261;BME280;5175;42.606;23.388;2024-01-07T06:06:41;91923.03;;;7.58;100.00
10261;BME280;5175;42.606;23.388;2024-01-07T06:09:09;91930.50;;;7.56;100.00
10261;BME280;5175;42.606;23.388;2024-01-07T06:11:36;91914.59;;;7.56;100.00
10261;BME280;5175;42.606;23.388;2024-01-07T06:14:03;91914.06;;;7.45;100.00
10261;BME280;5175;42.606;23.388;2024-01-07T06:16:29;91900.22;;;6.96;100.00
10261;BME280;5175;42.606;23.388;2024-01-07T06:18:56;91899.56;;;6.90;100.00
10261;BME280;5175;42.606;23.388;2024-01-07T06:21:23;91907.84;;;7.19;100.00
10261;BME280;5175;42.606;23.388;2024-01-07T06:23:50;91904.81;;;7.34;100.00
10261;BME280;5175;42.606;23.388;2024-01-07T06:26:18;91906.38;;;7.35;100.00
10261;BME280;5175;42.606;23.388;2024-01-07T06:28:44;91904.50;;;7.36;100.00
10261;BME280;5175;42.606;23.388;2024-01-07T06:31:11;91905.38;;;7.53;100.00
10261;BME280;5175;42.606;23.388;2024-01-07T06:33:38;91904.94;;;7.60;100.00
10261;BME280;5175;42.606;23.388;2024-01-07T06:36:05;91913.72;;;7.38;100.00
10261;BME280;5175;42.606;23.388;2024-01-07T06:38:32;91928.78;;;7.51;100.00
10261;BME280;5175;42.606;23.388;2024-01-07T06:40:59;91937.13;;;7.67;100.00
10261;BME280;5175;42.606;23.388;2024-01-07T06:43:30;91932.56;;;7.59;100.00
10261;BME280;5175;42.606;23.388;2024-01-07T06:45:57;91935.56;;;7.66;100.00
10261;BME280;5175;42.606;23.388;2024-01-07T06:48:24;91947.91;;;7.71;100.00
10261;BME280;5175;42.606;23.388;2024-01-07T06:50:50;91952.75;;;7.69;100.00
10261;BME280;5175;42.606;23.388;2024-01-07T06:53:17;91935.41;;;7.63;100.00
10261;BME280;5175;42.606;23.388;2024-01-07T06:55:44;91951.53;;;7.44;100.00
10261;BME280;5175;42.606;23.388;2024-01-07T06:58:10;91955.59;;;7.72;100.00
10261;BME280;5175;42.606;23.388;2024-01-07T07:00:38;91941.72;;;7.75;100.00
10261;BME280;5175;42.606;23.388;2024-01-07T07:03:05;91936.81;;;7.69;100.00
10261;BME280;5175;42.606;23.388;2024-01-07T07:05:32;91949.75;;;7.62;100.00
10261;BME280;5175;42.606;23.388;2024-01-07T07:07:59;91961.94;;;7.63;100.00
10261;BME280;5175;42.606;23.388;2024-01-07T07:10:26;91942.72;;;7.66;100.00
10261;BME280;5175;42.606;23.388;2024-01-07T07:12:53;91927.94;;;7.42;100.00
10261;BME280;5175;42.606;23.388;2024-01-07T07:15:19;91920.78;;;7.43;100.00
10261;BME280;5175;42.606;23.388;2024-01-07T07:17:47;91928.00;;;7.51;100.00
10261;BME280;5175;42.606;23.388;2024-01-07T07:20:14;91942.00;;;7.74;100.00
10261;BME280;5175;42.606;23.388;2024-01-07T07:22:41;91929.19;;;7.76;100.00
10261;BME280;5175;42.606;23.388;2024-01-07T07:25:08;91920.22;;;7.94;100.00
10261;BME280;5175;42.606;23.388;2024-01-07T07:27:35;91921.03;;;8.03;100.00
10261;BME280;5175;42.606;23.388;2024-01-07T07:30:03;91926.03;;;7.96;100.00
10261;BME280;5175;42.606;23.388;2024-01-07T07:32:30;91929.84;;;8.20;100.00
10261;BME280;5175;42.606;23.388;2024-01-07T07:34:59;91936.31;;;8.37;100.00
10261;BME280;5175;42.606;23.388;2024-01-07T07:37:25;91936.47;;;8.40;100.00
10261;BME280;5175;42.606;23.388;2024-01-07T07:39:52;91921.91;;;8.38;100.00
10261;BME280;5175;42.606;23.388;2024-01-07T07:42:19;91923.66;;;8.42;100.00
10261;BME280;5175;42.606;23.388;2024-01-07T07:44:46;91920.88;;;8.47;100.00
10261;BME280;5175;42.606;23.388;2024-01-07T07:47:13;91921.47;;;8.44;100.00
10261;BME280;5175;42.606;23.388;2024-01-07T07:49:40;91916.19;;;8.61;100.00
10261;BME280;5175;42.606;23.388;2024-01-07T07:52:08;91913.19;;;8.63;100.00
10261;BME280;5175;42.606;23.388;2024-01-07T07:54:36;91907.75;;;8.76;100.00
10261;BME280;5175;42.606;23.388;2024-01-07T07:57:03;91894.00;;;8.83;100.00
10261;BME280;5175;42.606;23.388;2024-01-07T07:59:30;91896.47;;;9.05;100.00
10261;BME280;5175;42.606;23.388;2024-01-07T08:01:57;91901.31;;;9.20;100.00
10261;BME280;5175;42.606;23.388;2024-01-07T08:04:24;91903.50;;;9.18;100.00
10261;BME280;5175;42.606;23.388;2024-01-07T08:06:52;91920.41;;;9.14;100.00
10261;BME280;5175;42.606;23.388;2024-01-07T08:09:20;91895.38;;;8.89;100.00
10261;BME280;5175;42.606;23.388;2024-01-07T08:11:47;91905.69;;;9.08;100.00
10261;BME280;5175;42.606;23.388;2024-01-07T08:14:13;91918.22;;;9.24;100.00
10261;BME280;5175;42.606;23.388;2024-01-07T08:16:40;91916.97;;;9.13;100.00
10261;BME280;5175;42.606;23.388;2024-01-07T08:19:07;91923.06;;;9.14;100.00
10261;BME280;5175;42.606;23.388;2024-01-07T08:21:35;91906.66;;;9.03;100.00
10261;BME280;5175;42.606;23.388;2024-01-07T08:24:02;91908.19;;;9.13;100.00
10261;BME280;5175;42.606;23.388;2024-01-07T08:26:30;91919.47;;;9.10;100.00
10261;BME280;5175;42.606;23.388;2024-01-07T08:28:57;91909.78;;;9.05;100.00
10261;BME280;5175;42.606;23.388;2024-01-07T08:31:24;91920.91;;;8.99;100.00
10261;BME280;5175;42.606;23.388;2024-01-07T08:33:51;91919.00;;;9.16;100.00
10261;BME280;5175;42.606;23.388;2024-01-07T08:36:18;91910.06;;;9.21;100.00
10261;BME280;5175;42.606;23.388;2024-01-07T08:38:44;91915.22;;;9.17;100.00
10261;BME280;5175;42.606;23.388;2024-01-07T08:41:11;91916.81;;;9.27;100.00
10261;BME280;5175;42.606;23.388;2024-01-07T08:43:39;91912.06;;;9.41;100.00
10261;BME280;5175;42.606;23.388;2024-01-07T08:46:06;91920.66;;;9.55;100.00
10261;BME280;5175;42.606;23.388;2024-01-07T08:48:33;91900.63;;;9.58;100.00
10261;BME280;5175;42.606;23.388;2024-01-07T08:51:00;91907.41;;;9.76;100.00
10261;BME280;5175;42.606;23.388;2024-01-07T08:53:26;91908.63;;;9.95;100.00
10261;BME280;5175;42.606;23.388;2024-01-07T08:55:53;91902.50;;;9.95;100.00
10261;BME280;5175;42.606;23.388;2024-01-07T08:58:20;91895.84;;;10.09;100.00
10261;BME280;5175;42.606;23.388;2024-01-07T09:00:48;91902.59;;;10.16;100.00
10261;BME280;5175;42.606;23.388;2024-01-07T09:03:15;91907.09;;;10.24;100.00
10261;BME280;5175;42.606;23.388;2024-01-07T09:05:42;91900.94;;;10.32;100.00
10261;BME280;5175;42.606;23.388;2024-01-07T09:08:08;91904.34;;;10.41;100.00
10261;BME280;5175;42.606;23.388;2024-01-07T09:10:36;91891.16;;;10.44;100.00
10261;BME280;5175;42.606;23.388;2024-01-07T09:13:03;91897.28;;;10.45;100.00
10261;BME280;5175;42.606;23.388;2024-01-07T09:15:30;91906.78;;;10.54;100.00
10261;BME280;5175;42.606;23.388;2024-01-07T09:17:58;91914.94;;;10.20;100.00
10261;BME280;5175;42.606;23.388;2024-01-07T09:20:24;91916.47;;;10.30;100.00
10261;BME280;5175;42.606;23.388;2024-01-07T09:22:51;91913.44;;;10.40;100.00
10261;BME280;5175;42.606;23.388;2024-01-07T09:25:18;91914.09;;;10.37;100.00
10261;BME280;5175;42.606;23.388;2024-01-07T09:27:45;91910.69;;;10.57;100.00
10261;BME280;5175;42.606;23.388;2024-01-07T09:30:12;91887.81;;;10.27;100.00
10261;BME280;5175;42.606;23.388;2024-01-07T09:32:40;91902.59;;;10.07;100.00
10261;BME280;5175;42.606;23.388;2024-01-07T09:35:08;91884.03;;;9.90;100.00
10261;BME280;5175;42.606;23.388;2024-01-07T09:37:35;91903.84;;;10.09;100.00
10261;BME280;5175;42.606;23.388;2024-01-07T09:40:02;91883.47;;;10.43;100.00
10261;BME280;5175;42.606;23.388;2024-01-07T09:42:30;91887.97;;;10.51;100.00
10261;BME280;5175;42.606;23.388;2024-01-07T09:45:00;91899.56;;;10.55;100.00
10261;BME280;5175;42.606;23.388;2024-01-07T09:47:28;91898.63;;;10.51;100.00
10261;BME280;5175;42.606;23.388;2024-01-07T09:49:55;91890.41;;;10.35;100.00
10261;BME280;5175;42.606;23.388;2024-01-07T09:52:25;91894.75;;;10.19;100.00
10261;BME280;5175;42.606;23.388;2024-01-07T09:54:55;91901.16;;;10.18;100.00
10261;BME280;5175;42.606;23.388;2024-01-07T09:57:25;91912.06;;;10.34;100.00
10261;BME280;5175;42.606;23.388;2024-01-07T09:59:52;91905.66;;;10.35;100.00
10261;BME280;5175;42.606;23.388;2024-01-07T10:02:18;91904.72;;;10.31;100.00
10261;BME280;5175;42.606;23.388;2024-01-07T10:04:46;91902.44;;;10.12;100.00
10261;BME280;5175;42.606;23.388;2024-01-07T10:07:13;91888.75;;;10.22;100.00
10261;BME280;5175;42.606;23.388;2024-01-07T10:09:42;91908.16;;;10.31;100.00
10261;BME280;5175;42.606;23.388;2024-01-07T10:12:08;91896.97;;;10.08;100.00
10261;BME280;5175;42.606;23.388;2024-01-07T10:14:36;91873.19;;;10.33;100.00
10261;BME280;5175;42.606;23.388;2024-01-07T10:17:14;91854.72;;;10.28;100.00
10261;BME280;5175;42.606;23.388;2024-01-07T10:19:43;91876.66;;;9.95;100.00
10261;BME280;5175;42.606;23.388;2024-01-07T10:22:12;91855.13;;;10.09;100.00
10261;BME280;5175;42.606;23.388;2024-01-07T10:24:40;91864.69;;;10.01;100.00
10261;BME280;5175;42.606;23.388;2024-01-07T10:27:09;91888.81;;;10.14;100.00
10261;BME280;5175;42.606;23.388;2024-01-07T10:29:36;91880.97;;;10.38;100.00
10261;BME280;5175;42.606;23.388;2024-01-07T10:32:03;91870.41;;;10.50;100.00
10261;BME280;5175;42.606;23.388;2024-01-07T10:34:32;91872.81;;;10.43;100.00
10261;BME280;5175;42.606;23.388;2024-01-07T10:36:59;91839.72;;;10.44;100.00
10261;BME280;5175;42.606;23.388;2024-01-07T10:39:26;91832.75;;;10.51;100.00
10261;BME280;5175;42.606;23.388;2024-01-07T10:41:54;91846.53;;;10.53;100.00
10261;BME280;5175;42.606;23.388;2024-01-07T10:44:25;91832.06;;;10.63;100.00
10261;BME280;5175;42.606;23.388;2024-01-07T10:46:54;91830.34;;;10.58;100.00
10261;BME280;5175;42.606;23.388;2024-01-07T10:49:22;91844.16;;;10.60;100.00
10261;BME280;5175;42.606;23.388;2024-01-07T10:52:01;91830.25;;;10.55;100.00
10261;BME280;5175;42.606;23.388;2024-01-07T10:54:30;91841.16;;;10.62;100.00
10261;BME280;5175;42.606;23.388;2024-01-07T10:56:59;91842.13;;;10.57;100.00
10261;BME280;5175;42.606;23.388;2024-01-07T10:59:29;91844.53;;;10.71;100.00
10261;BME280;5175;42.606;23.388;2024-01-07T11:01:58;91844.47;;;10.80;100.00
10261;BME280;5175;42.606;23.388;2024-01-07T11:04:37;91843.16;;;10.86;100.00
10261;BME280;5175;42.606;23.388;2024-01-07T11:07:14;91846.22;;;10.76;100.00
10261;BME280;5175;42.606;23.388;2024-01-07T11:09:51;91841.22;;;10.74;100.00
10261;BME280;5175;42.606;23.388;2024-01-07T11:12:20;91848.38;;;10.82;100.00
10261;BME280;5175;42.606;23.388;2024-01-07T11:14:49;91850.38;;;10.85;100.00
10261;BME280;5175;42.606;23.388;2024-01-07T11:17:40;91843.81;;;10.83;100.00
10261;BME280;5175;42.606;23.388;2024-01-07T11:20:13;91829.84;;;10.86;100.00
10261;BME280;5175;42.606;23.388;2024-01-07T11:22:40;91842.53;;;10.89;100.00
10261;BME280;5175;42.606;23.388;2024-01-07T11:25:28;91839.75;;;10.97;100.00
10261;BME280;5175;42.606;23.388;2024-01-07T11:27:56;91838.66;;;10.98;100.00
10261;BME280;5175;42.606;23.388;2024-01-07T11:30:24;91842.88;;;10.99;100.00
10261;BME280;5175;42.606;23.388;2024-01-07T11:32:56;91842.69;;;10.84;100.00
10261;BME280;5175;42.606;23.388;2024-01-07T11:38:23;91851.03;;;10.82;100.00
10261;BME280;5175;42.606;23.388;2024-01-07T11:40:50;91844.47;;;10.80;100.00
10261;BME280;5175;42.606;23.388;2024-01-07T11:43:18;91840.16;;;10.87;100.00
10261;BME280;5175;42.606;23.388;2024-01-07T11:45:46;91849.53;;;10.93;100.00
10261;BME280;5175;42.606;23.388;2024-01-07T11:48:13;91852.59;;;11.04;100.00
10261;BME280;5175;42.606;23.388;2024-01-07T11:50:41;91848.81;;;10.84;100.00
10261;BME280;5175;42.606;23.388;2024-01-07T11:53:08;91859.94;;;10.86;100.00
10261;BME280;5175;42.606;23.388;2024-01-07T11:55:35;91852.59;;;10.83;100.00
10261;BME280;5175;42.606;23.388;2024-01-07T11:58:02;91850.53;;;10.89;100.00
10261;BME280;5175;42.606;23.388;2024-01-07T12:00:31;91852.00;;;10.78;100.00
10261;BME280;5175;42.606;23.388;2024-01-07T12:02:59;91854.44;;;10.91;100.00
10261;BME280;5175;42.606;23.388;2024-01-07T12:05:26;91847.38;;;10.87;100.00
10261;BME280;5175;42.606;23.388;2024-01-07T12:07:53;91846.66;;;10.98;100.00
10261;BME280;5175;42.606;23.388;2024-01-07T12:10:20;91848.53;;;10.98;100.00
10261;BME280;5175;42.606;23.388;2024-01-07T12:12:47;91841.19;;;10.95;100.00
10261;BME280;5175;42.606;23.388;2024-01-07T12:15:15;91850.59;;;11.13;100.00
10261;BME280;5175;42.606;23.388;2024-01-07T12:17:54;91855.50;;;11.11;100.00
10261;BME280;5175;42.606;23.388;2024-01-07T12:20:22;91852.50;;;10.92;100.00
10261;BME280;5175;42.606;23.388;2024-01-07T12:22:49;91860.22;;;10.93;100.00
10261;BME280;5175;42.606;23.388;2024-01-07T12:25:21;91853.69;;;10.82;100.00
10261;BME280;5175;42.606;23.388;2024-01-07T12:27:48;91858.03;;;10.87;100.00
10261;BME280;5175;42.606;23.388;2024-01-07T12:30:18;91845.44;;;10.75;100.00
10261;BME280;5175;42.606;23.388;2024-01-07T12:32:45;91851.38;;;10.81;100.00
10261;BME280;5175;42.606;23.388;2024-01-07T12:35:12;91855.53;;;10.90;100.00
10261;BME280;5175;42.606;23.388;2024-01-07T12:37:41;91847.91;;;10.80;100.00
10261;BME280;5175;42.606;23.388;2024-01-07T12:40:09;91858.84;;;10.66;100.00
10261;BME280;5175;42.606;23.388;2024-01-07T12:42:37;91848.44;;;10.74;100.00
10261;BME280;5175;42.606;23.388;2024-01-07T12:45:08;91856.63;;;10.89;100.00
10261;BME280;5175;42.606;23.388;2024-01-07T12:47:35;91849.84;;;10.92;100.00
10261;BME280;5175;42.606;23.388;2024-01-07T12:50:02;91855.19;;;10.92;100.00
10261;BME280;5175;42.606;23.388;2024-01-07T12:52:29;91849.00;;;11.00;100.00
10261;BME280;5175;42.606;23.388;2024-01-07T12:54:57;91861.47;;;11.08;100.00
10261;BME280;5175;42.606;23.388;2024-01-07T12:57:24;91866.53;;;11.21;100.00
10261;BME280;5175;42.606;23.388;2024-01-07T12:59:50;91862.00;;;11.22;100.00
10261;BME280;5175;42.606;23.388;2024-01-07T13:02:17;91857.88;;;11.24;100.00